createdAt,value
2019-03-19T00:01:41.684Z,6.47
2019-03-19T00:04:13.276Z,6.83
2019-03-19T00:06:45.248Z,7.57
2019-03-19T00:09:16.534Z,9.80
2019-03-19T00:11:48.030Z,9.40
2019-03-19T00:14:19.509Z,4.47
2019-03-19T00:16:50.843Z,7.57
2019-03-19T00:19:22.617Z,9.67
2019-03-19T00:21:54.229Z,6.67
2019-03-19T00:24:26.203Z,4.70
2019-03-19T00:26:57.649Z,6.47
2019-03-19T00:29:29.340Z,8.33
2019-03-19T00:32:00.952Z,5.63
2019-03-19T00:34:32.294Z,6.73
2019-03-19T00:37:04.470Z,4.20
2019-03-19T00:39:36.751Z,4.97
2019-03-19T00:42:08.068Z,7.70
2019-03-19T00:44:41.978Z,7.63
2019-03-19T00:47:13.926Z,5.10
2019-03-19T00:49:45.858Z,6.13
2019-03-19T00:52:17.246Z,6.77
2019-03-19T00:54:48.557Z,3.93
2019-03-19T00:57:19.931Z,5.73
2019-03-19T00:59:51.160Z,5.43
2019-03-19T01:02:22.593Z,6.27
2019-03-19T01:04:54.117Z,8.30
2019-03-19T01:07:25.777Z,6.70
2019-03-19T01:09:57.245Z,7.00
2019-03-19T01:12:28.941Z,7.00
2019-03-19T01:15:00.619Z,7.17
2019-03-19T01:17:32.156Z,2.97
2019-03-19T01:20:03.612Z,6.57
2019-03-19T01:22:35.198Z,5.07
2019-03-19T01:25:07.300Z,4.20
2019-03-19T01:27:38.816Z,7.60
2019-03-19T01:30:10.834Z,6.53
2019-03-19T01:32:42.694Z,4.37
2019-03-19T01:35:14.513Z,6.70
2019-03-19T01:37:46.119Z,5.47
2019-03-19T01:40:18.523Z,6.33
2019-03-19T01:42:49.910Z,5.73
2019-03-19T01:45:21.621Z,3.90
2019-03-19T01:47:52.955Z,3.47
2019-03-19T01:50:24.372Z,3.83
2019-03-19T01:52:56.129Z,7.13
2019-03-19T01:55:27.474Z,5.60
2019-03-19T01:57:59.432Z,4.30
2019-03-19T02:00:30.690Z,4.57
2019-03-19T02:03:02.534Z,4.73
2019-03-19T02:05:34.360Z,5.93
2019-03-19T02:08:05.697Z,4.17
2019-03-19T02:10:37.082Z,3.33
2019-03-19T02:13:09.176Z,5.67
2019-03-19T02:15:40.632Z,7.63
2019-03-19T02:18:12.364Z,4.73
2019-03-19T02:20:44.225Z,3.50
2019-03-19T02:23:15.597Z,5.53
2019-03-19T02:25:46.897Z,9.63
2019-03-19T02:28:18.855Z,7.00
2019-03-19T02:30:50.193Z,4.90
2019-03-19T02:33:21.470Z,6.40
2019-03-19T02:35:52.771Z,6.43
2019-03-19T02:38:24.160Z,7.20
2019-03-19T02:40:56.162Z,6.63
2019-03-19T02:43:28.423Z,7.17
2019-03-19T02:46:00.898Z,8.50
2019-03-19T02:48:32.949Z,8.47
2019-03-19T02:51:04.265Z,11.87
2019-03-19T02:53:35.593Z,6.13
2019-03-19T02:56:06.922Z,10.10
2019-03-19T02:58:38.262Z,5.17
2019-03-19T03:01:10.466Z,4.07
2019-03-19T03:03:41.701Z,4.77
2019-03-19T03:06:13.391Z,9.57
2019-03-19T03:08:45.157Z,7.00
2019-03-19T03:11:17.585Z,3.30
2019-03-19T03:13:49.646Z,5.13
2019-03-19T03:16:21.101Z,7.57
2019-03-19T03:18:52.525Z,6.83
2019-03-19T03:21:23.844Z,4.57
2019-03-19T03:23:55.472Z,4.00
2019-03-19T03:26:26.905Z,3.80
2019-03-19T03:28:58.630Z,5.03
2019-03-19T03:31:31.681Z,3.43
2019-03-19T03:34:03.054Z,2.47
2019-03-19T03:36:34.275Z,6.73
2019-03-19T03:39:07.990Z,3.97
2019-03-19T03:41:39.551Z,3.73
2019-03-19T03:44:10.851Z,5.47
2019-03-19T03:46:42.747Z,4.30
2019-03-19T03:49:14.534Z,3.00
2019-03-19T03:51:46.251Z,5.53
2019-03-19T03:54:17.757Z,3.50
2019-03-19T03:57:01.208Z,4.77
2019-03-19T03:59:22.212Z,7.37
2019-03-19T04:01:53.671Z,6.07
2019-03-19T04:04:25.132Z,4.07
2019-03-19T04:06:56.484Z,6.33
2019-03-19T04:09:29.002Z,7.77
2019-03-19T04:12:00.816Z,8.43
2019-03-19T04:14:32.198Z,9.60
2019-03-19T04:17:03.483Z,10.73
2019-03-19T04:19:34.831Z,8.43
2019-03-19T04:22:06.706Z,15.33
2019-03-19T04:24:38.745Z,7.63
2019-03-19T04:27:16.334Z,9.93
2019-03-19T04:29:44.468Z,10.07
2019-03-19T04:32:16.148Z,12.20
2019-03-19T04:34:47.488Z,9.57
2019-03-19T04:37:18.860Z,9.00
2019-03-19T04:39:50.186Z,8.63
2019-03-19T04:42:21.964Z,7.37
2019-03-19T04:44:53.320Z,6.93
2019-03-19T04:47:24.618Z,4.23
2019-03-19T04:49:55.986Z,8.77
2019-03-19T04:52:27.580Z,3.40
2019-03-19T04:55:00.405Z,5.00
2019-03-19T04:57:32.471Z,8.37
2019-03-19T05:00:05.282Z,4.40
2019-03-19T05:02:38.351Z,4.47
2019-03-19T05:05:10.193Z,4.83
2019-03-19T05:07:41.566Z,6.17
2019-03-19T05:10:13.401Z,4.33
2019-03-19T05:12:45.170Z,3.40
2019-03-19T05:15:16.687Z,3.23
2019-03-19T05:17:47.975Z,6.30
2019-03-19T05:20:19.291Z,4.17
2019-03-19T05:22:50.667Z,7.83
2019-03-19T05:25:22.106Z,8.30
2019-03-19T05:27:54.138Z,6.57
2019-03-19T05:30:25.590Z,7.83
2019-03-19T05:32:56.978Z,6.47
2019-03-19T05:35:28.481Z,9.00
2019-03-19T05:38:00.126Z,6.63
2019-03-19T05:40:31.466Z,4.63
2019-03-19T05:43:03.918Z,4.97
2019-03-19T05:45:35.967Z,4.97
2019-03-19T05:48:07.501Z,6.40
2019-03-19T05:50:39.883Z,6.87
2019-03-19T05:53:11.175Z,6.50
2019-03-19T05:55:42.723Z,6.00
2019-03-19T05:58:14.152Z,7.00
2019-03-19T06:00:46.915Z,7.90
2019-03-19T06:03:18.253Z,7.27
2019-03-19T06:05:49.556Z,4.63
2019-03-19T06:08:21.092Z,8.13
2019-03-19T06:10:52.617Z,6.67
2019-03-19T06:13:23.995Z,8.13
2019-03-19T06:15:55.369Z,7.90
2019-03-19T06:18:35.050Z,6.87
2019-03-19T06:21:01.309Z,6.70
2019-03-19T06:23:32.702Z,5.57
2019-03-19T06:26:04.038Z,4.93
2019-03-19T06:28:35.736Z,4.37
2019-03-19T06:31:07.124Z,4.70
2019-03-19T06:33:38.619Z,4.27
2019-03-19T06:36:10.219Z,6.20
2019-03-19T06:38:41.774Z,4.73
2019-03-19T06:41:13.294Z,8.27
2019-03-19T06:43:45.283Z,5.53
2019-03-19T06:46:16.567Z,6.20
2019-03-19T06:48:47.881Z,7.10
2019-03-19T06:51:19.635Z,4.63
2019-03-19T06:53:50.940Z,3.17
2019-03-19T06:56:22.491Z,3.97
2019-03-19T06:58:53.982Z,5.53
2019-03-19T07:01:25.483Z,4.00
2019-03-19T07:03:56.818Z,5.57
2019-03-19T07:06:28.776Z,3.40
2019-03-19T07:09:00.419Z,8.20
2019-03-19T07:11:32.071Z,8.03
2019-03-19T07:14:03.740Z,5.17
2019-03-19T07:16:35.094Z,6.63
2019-03-19T07:19:06.398Z,4.47
2019-03-19T07:21:38.827Z,3.13
2019-03-19T07:24:10.152Z,4.43
2019-03-19T07:26:41.481Z,3.30
2019-03-19T07:29:13.056Z,4.03
2019-03-19T07:31:44.955Z,2.63
2019-03-19T07:34:16.281Z,4.53
2019-03-19T07:36:47.663Z,7.17
2019-03-19T07:39:19.083Z,3.07
2019-03-19T07:41:51.568Z,5.67
2019-03-19T07:44:23.891Z,3.40
2019-03-19T07:46:55.330Z,5.67
2019-03-19T07:49:26.672Z,5.53
2019-03-19T07:51:58.343Z,4.43
2019-03-19T07:54:30.594Z,3.53
2019-03-19T07:57:02.853Z,4.33
2019-03-19T07:59:34.130Z,4.90
2019-03-19T08:02:05.468Z,3.63
2019-03-19T08:04:37.727Z,7.27
2019-03-19T08:07:09.074Z,7.17
2019-03-19T08:09:40.609Z,3.80
2019-03-19T08:12:12.466Z,4.33
2019-03-19T08:14:44.091Z,7.17
2019-03-19T08:17:16.187Z,10.40
2019-03-19T08:19:47.543Z,4.77
2019-03-19T08:22:19.091Z,4.83
2019-03-19T08:24:50.564Z,2.77
2019-03-19T08:27:22.741Z,3.27
2019-03-19T08:29:55.181Z,4.10
2019-03-19T08:32:27.030Z,3.90
2019-03-19T08:34:59.717Z,3.17
2019-03-19T08:37:31.061Z,8.10
2019-03-19T08:40:02.635Z,3.73
2019-03-19T08:42:34.294Z,4.70
2019-03-19T08:45:06.336Z,4.33
2019-03-19T08:47:38.519Z,3.23
2019-03-19T08:50:14.454Z,4.13
2019-03-19T08:52:46.266Z,4.30
2019-03-19T08:55:17.724Z,6.27
2019-03-19T08:57:49.171Z,2.47
2019-03-19T09:00:20.622Z,6.30
2019-03-19T09:02:52.495Z,6.57
2019-03-19T09:05:23.942Z,4.00
2019-03-19T09:07:56.277Z,5.97
2019-03-19T09:10:27.852Z,5.07
2019-03-19T09:12:59.511Z,3.60
2019-03-19T09:15:31.120Z,2.80
2019-03-19T09:18:02.582Z,6.30
2019-03-19T09:20:34.920Z,3.50
2019-03-19T09:23:06.657Z,4.97
2019-03-19T09:25:38.451Z,4.63
2019-03-19T09:28:09.826Z,1.00
2019-03-19T09:30:41.325Z,2.73
2019-03-19T09:33:13.268Z,3.47
2019-03-19T09:35:45.123Z,5.17
2019-03-19T09:38:16.643Z,3.33
2019-03-19T09:40:48.153Z,2.27
2019-03-19T09:43:19.499Z,3.00
2019-03-19T09:45:51.486Z,3.67
2019-03-19T09:48:22.981Z,4.50
2019-03-19T09:50:54.574Z,2.47
2019-03-19T09:53:27.341Z,3.07
2019-03-19T09:55:58.931Z,2.40
2019-03-19T09:58:32.068Z,2.73
2019-03-19T10:01:03.580Z,9.30
2019-03-19T10:03:34.958Z,2.10
2019-03-19T10:06:13.985Z,2.90
2019-03-19T10:08:40.611Z,2.10
2019-03-19T10:11:12.640Z,2.70
2019-03-19T10:13:44.439Z,2.97
2019-03-19T10:16:15.786Z,3.80
2019-03-19T10:18:47.049Z,3.87
2019-03-19T10:21:18.399Z,2.13
2019-03-19T10:23:50.299Z,4.73
2019-03-19T10:26:21.803Z,4.30
2019-03-19T10:28:53.126Z,2.40
2019-03-19T10:31:24.641Z,5.13
2019-03-19T10:33:56.011Z,5.60
2019-03-19T10:36:27.311Z,2.37
2019-03-19T10:38:59.734Z,3.53
2019-03-19T10:41:31.344Z,5.03
2019-03-19T10:44:02.662Z,3.83
2019-03-19T10:46:34.096Z,4.33
2019-03-19T10:49:05.468Z,2.23
2019-03-19T10:51:36.798Z,2.50
2019-03-19T10:54:08.354Z,2.67
2019-03-19T10:56:39.599Z,3.67
2019-03-19T10:59:10.921Z,3.10
2019-03-19T11:01:42.481Z,3.33
2019-03-19T11:04:13.853Z,4.77
2019-03-19T11:06:45.783Z,3.37
2019-03-19T11:09:17.289Z,3.20
2019-03-19T11:11:48.640Z,2.67
2019-03-19T11:14:19.947Z,1.43
2019-03-19T11:16:51.287Z,2.30
2019-03-19T11:19:22.837Z,2.40
2019-03-19T11:21:54.188Z,3.73
2019-03-19T11:24:25.641Z,1.63
2019-03-19T11:26:57.664Z,3.50
2019-03-19T11:29:29.850Z,2.33
2019-03-19T11:32:01.635Z,2.53
2019-03-19T11:34:33.095Z,4.27
2019-03-19T11:37:04.675Z,3.33
2019-03-19T11:39:36.414Z,3.30
2019-03-19T11:42:07.912Z,3.17
2019-03-19T11:44:39.779Z,2.77
2019-03-19T11:47:11.851Z,3.50
2019-03-19T11:49:44.117Z,3.87
2019-03-19T11:52:15.459Z,3.03
2019-03-19T11:54:46.919Z,4.50
2019-03-19T11:57:18.553Z,3.67
2019-03-19T11:59:49.950Z,6.73
2019-03-19T12:02:25.922Z,1.67
2019-03-19T12:04:54.528Z,3.60
2019-03-19T12:07:26.752Z,6.30
2019-03-19T12:09:59.436Z,4.90
2019-03-19T12:12:30.878Z,4.10
2019-03-19T12:15:02.804Z,2.67
2019-03-19T12:17:34.368Z,3.63
2019-03-19T12:20:06.018Z,1.83
2019-03-19T12:22:38.019Z,2.10
2019-03-19T12:25:10.132Z,4.70
2019-03-19T12:27:41.859Z,3.07
2019-03-19T12:30:22.097Z,5.30
2019-03-19T12:32:48.086Z,3.63
2019-03-19T12:35:19.910Z,4.47
2019-03-19T12:37:51.654Z,6.93
2019-03-19T12:40:24.102Z,3.27
2019-03-19T12:42:56.113Z,5.53
2019-03-19T12:45:28.340Z,4.40
2019-03-19T12:48:00.228Z,3.57
2019-03-19T12:50:31.678Z,4.07
2019-03-19T12:53:03.063Z,2.53
2019-03-19T12:55:34.450Z,4.50
2019-03-19T12:58:07.071Z,3.07
2019-03-19T13:00:38.459Z,3.03
2019-03-19T13:03:09.745Z,2.10
2019-03-19T13:05:41.086Z,3.33
2019-03-19T13:08:12.567Z,2.53
2019-03-19T13:10:44.429Z,5.93
2019-03-19T13:13:15.743Z,4.17
2019-03-19T13:15:47.137Z,3.47
2019-03-19T13:18:18.468Z,3.77
2019-03-19T13:20:49.911Z,4.27
2019-03-19T13:23:21.845Z,2.07
2019-03-19T13:25:53.234Z,1.27
2019-03-19T13:28:25.711Z,3.23
2019-03-19T13:30:57.046Z,2.00
2019-03-19T13:33:28.519Z,2.17
2019-03-19T13:36:00.696Z,2.40
2019-03-19T13:38:32.151Z,2.57
2019-03-19T13:41:04.107Z,3.00
2019-03-19T13:43:35.506Z,2.97
2019-03-19T13:46:07.083Z,4.17
2019-03-19T13:48:39.008Z,2.43
2019-03-19T13:51:10.326Z,3.07
2019-03-19T13:53:41.826Z,3.43
2019-03-19T13:56:13.303Z,1.60
2019-03-19T13:58:45.213Z,5.50
2019-03-19T14:01:17.130Z,3.30
2019-03-19T14:03:48.501Z,2.77
2019-03-19T14:06:19.827Z,5.13
2019-03-19T14:08:51.321Z,2.00
2019-03-19T14:11:22.779Z,3.83
2019-03-19T14:13:55.763Z,1.90
2019-03-19T14:16:28.697Z,3.63
2019-03-19T14:19:01.419Z,3.53
2019-03-19T14:21:32.973Z,2.10
2019-03-19T14:24:05.589Z,3.73
2019-03-19T14:26:37.055Z,3.20
2019-03-19T14:29:08.506Z,4.50
2019-03-19T14:31:40.180Z,2.07
2019-03-19T14:34:11.871Z,1.43
2019-03-19T14:36:43.857Z,8.10
2019-03-19T14:39:15.604Z,2.77
2019-03-19T14:41:47.343Z,5.93
2019-03-19T14:44:18.845Z,2.90
2019-03-19T14:46:50.205Z,4.07
2019-03-19T14:49:22.285Z,3.90
2019-03-19T14:51:54.757Z,3.43
2019-03-19T14:54:26.124Z,4.23
2019-03-19T14:56:57.405Z,4.40
2019-03-19T14:59:29.053Z,4.47
2019-03-19T15:02:00.846Z,6.73
2019-03-19T15:04:32.323Z,5.67
2019-03-19T15:07:04.715Z,5.83
2019-03-19T15:09:36.104Z,4.53
2019-03-19T15:12:07.455Z,3.60
2019-03-19T15:14:39.269Z,4.70
2019-03-19T15:17:10.741Z,3.20
2019-03-19T15:19:42.604Z,3.87
2019-03-19T15:22:14.688Z,2.07
2019-03-19T15:24:46.597Z,3.10
2019-03-19T15:27:18.081Z,4.30
2019-03-19T15:29:49.419Z,6.47
2019-03-19T15:32:20.817Z,4.97
2019-03-19T15:34:52.807Z,3.27
2019-03-19T15:37:24.167Z,3.93
2019-03-19T15:39:56.199Z,3.50
2019-03-19T15:42:27.991Z,6.33
2019-03-19T15:45:00.398Z,3.57
2019-03-19T15:47:31.880Z,3.40
2019-03-19T15:50:03.284Z,4.40
2019-03-19T15:52:34.833Z,2.63
2019-03-19T15:55:06.500Z,2.80
2019-03-19T15:57:38.586Z,4.27
2019-03-19T16:00:13.476Z,3.30
2019-03-19T16:02:45.175Z,6.90
2019-03-19T16:05:16.544Z,4.53
2019-03-19T16:07:47.925Z,3.43
2019-03-19T16:10:20.084Z,7.20
2019-03-19T16:12:52.553Z,6.77
2019-03-19T16:15:24.363Z,8.13
2019-03-19T16:17:55.731Z,4.20
2019-03-19T16:20:27.170Z,3.50
2019-03-19T16:22:59.327Z,4.17
2019-03-19T16:25:32.238Z,4.03
2019-03-19T16:28:03.935Z,7.13
2019-03-19T16:30:35.369Z,3.53
2019-03-19T16:33:07.000Z,6.60
2019-03-19T16:35:38.564Z,7.90
2019-03-19T16:38:10.165Z,10.03
2019-03-19T16:40:41.658Z,10.13
2019-03-19T16:43:14.077Z,7.37
2019-03-19T16:45:46.033Z,6.63
2019-03-19T16:48:17.498Z,6.57
2019-03-19T16:50:48.876Z,9.73
2019-03-19T16:53:20.779Z,6.20
2019-03-19T16:55:52.202Z,5.33
2019-03-19T16:58:23.559Z,9.50
2019-03-19T17:00:55.095Z,7.00
2019-03-19T17:03:26.592Z,7.30
2019-03-19T17:05:57.909Z,6.67
2019-03-19T17:08:29.551Z,10.30
2019-03-19T17:11:01.532Z,9.90
2019-03-19T17:13:33.252Z,9.30
2019-03-19T17:16:04.653Z,10.47
2019-03-19T17:18:36.127Z,12.97
2019-03-19T17:21:08.440Z,13.37
2019-03-19T17:23:40.096Z,12.30
2019-03-19T17:26:11.452Z,14.13
2019-03-19T17:28:43.407Z,12.97
2019-03-19T17:31:15.488Z,19.97
2019-03-19T17:33:48.511Z,24.83
2019-03-19T17:36:19.956Z,16.30
2019-03-19T17:38:51.507Z,13.73
2019-03-19T17:41:22.895Z,18.97
2019-03-19T17:43:54.439Z,12.77
2019-03-19T17:46:25.884Z,14.77
2019-03-19T17:48:57.940Z,10.50
2019-03-19T17:51:29.505Z,18.17
2019-03-19T17:54:01.491Z,15.30
2019-03-19T17:56:52.321Z,15.20
2019-03-19T17:59:23.835Z,20.07
2019-03-19T18:01:55.484Z,16.30
2019-03-19T18:04:27.118Z,16.93
2019-03-19T18:06:59.428Z,15.13
2019-03-19T18:09:30.888Z,20.33
2019-03-19T18:12:02.867Z,15.63
2019-03-19T18:14:34.832Z,14.23
2019-03-19T18:17:06.291Z,14.77
2019-03-19T18:19:37.638Z,13.77
2019-03-19T18:22:09.667Z,15.33
2019-03-19T18:24:41.968Z,19.93
2019-03-19T18:27:14.228Z,19.20
2019-03-19T18:29:45.846Z,21.43
2019-03-19T18:32:17.201Z,16.43
2019-03-19T18:34:48.463Z,18.13
2019-03-19T18:37:20.068Z,17.77
2019-03-19T18:39:51.465Z,18.63
2019-03-19T18:42:22.854Z,17.67
2019-03-19T18:44:54.179Z,17.80
2019-03-19T18:47:25.617Z,19.17
2019-03-19T18:49:56.984Z,23.40
2019-03-19T18:52:28.361Z,22.77
2019-03-19T18:55:00.402Z,30.20
2019-03-19T18:57:31.804Z,28.33
2019-03-19T19:00:03.120Z,22.17
2019-03-19T19:02:35.287Z,20.90
2019-03-19T19:05:07.547Z,21.07
2019-03-19T19:07:38.949Z,24.13
2019-03-19T19:10:11.040Z,21.17
2019-03-19T19:12:42.677Z,21.90
2019-03-19T19:15:15.220Z,20.20
2019-03-19T19:17:47.169Z,22.63
2019-03-19T19:20:20.269Z,21.43
2019-03-19T19:22:51.623Z,21.47
2019-03-19T19:25:23.229Z,20.93
2019-03-19T19:27:54.564Z,21.60
2019-03-19T19:30:26.056Z,24.47
2019-03-19T19:33:01.941Z,31.37
2019-03-19T19:35:30.976Z,29.23
2019-03-19T19:38:03.625Z,24.33
2019-03-19T19:40:36.302Z,25.83
2019-03-19T19:43:07.748Z,20.50
2019-03-19T19:45:39.231Z,25.20
2019-03-19T19:48:10.658Z,24.93
2019-03-19T19:50:42.068Z,23.60
2019-03-19T19:53:15.736Z,29.40
2019-03-19T19:55:47.020Z,26.63
2019-03-19T19:58:19.512Z,25.37
2019-03-19T20:00:50.863Z,29.53
2019-03-19T20:03:22.262Z,29.73
2019-03-19T20:05:53.626Z,26.37
2019-03-19T20:08:25.113Z,26.03
2019-03-19T20:10:56.674Z,30.60
2019-03-19T20:13:28.218Z,28.63
2019-03-19T20:16:00.090Z,27.63
2019-03-19T20:18:31.472Z,23.07
2019-03-19T20:21:02.807Z,34.30
2019-03-19T20:23:34.279Z,29.17
2019-03-19T20:26:05.747Z,33.17
2019-03-19T20:28:37.236Z,37.83
2019-03-19T20:31:08.780Z,38.63
2019-03-19T20:33:40.223Z,40.57
2019-03-19T20:36:11.707Z,39.80
2019-03-19T20:38:43.457Z,38.17
2019-03-19T20:41:14.936Z,31.90
2019-03-19T20:43:47.019Z,35.53
2019-03-19T20:46:18.360Z,25.17
2019-03-19T20:48:49.776Z,29.73
2019-03-19T20:51:21.199Z,26.50
2019-03-19T20:53:52.723Z,27.87
2019-03-19T20:56:24.925Z,22.43
2019-03-19T20:58:56.381Z,25.20
2019-03-19T21:01:28.051Z,26.97
2019-03-19T21:03:59.691Z,28.60
2019-03-19T21:06:31.052Z,30.07
2019-03-19T21:09:03.303Z,31.67
2019-03-19T21:11:34.996Z,33.20
2019-03-19T21:14:07.311Z,26.70
2019-03-19T21:16:38.721Z,31.97
2019-03-19T21:19:10.166Z,30.07
2019-03-19T21:21:41.620Z,30.23
2019-03-19T21:24:14.340Z,30.87
2019-03-19T21:26:46.267Z,30.77
2019-03-19T21:29:17.860Z,32.30
2019-03-19T21:31:49.795Z,33.03
2019-03-19T21:34:21.383Z,28.83
2019-03-19T21:36:52.927Z,29.97
2019-03-19T21:39:24.313Z,25.50
2019-03-19T21:41:55.825Z,26.10
2019-03-19T21:44:27.283Z,23.20
2019-03-19T21:46:59.180Z,21.47
2019-03-19T21:49:30.672Z,17.67
2019-03-19T21:52:02.352Z,22.43
2019-03-19T21:54:34.136Z,24.33
2019-03-19T21:57:06.806Z,22.10
2019-03-19T21:59:39.951Z,20.30
2019-03-19T22:02:13.573Z,20.17
2019-03-19T22:04:46.763Z,20.47
2019-03-19T22:07:20.452Z,13.80
2019-03-19T22:09:52.741Z,17.03
2019-03-19T22:12:24.270Z,22.97
2019-03-19T22:14:55.895Z,16.40
2019-03-19T22:17:27.412Z,17.10
2019-03-19T22:19:59.768Z,18.03
2019-03-19T22:22:31.804Z,24.90
2019-03-19T22:25:03.458Z,15.40
2019-03-19T22:27:35.505Z,19.23
2019-03-19T22:30:08.391Z,16.83
2019-03-19T22:32:42.487Z,20.30
2019-03-19T22:35:14.451Z,17.60
2019-03-19T22:37:46.315Z,14.70
2019-03-19T22:40:17.905Z,16.83
2019-03-19T22:42:49.737Z,14.80
2019-03-19T22:45:22.210Z,14.93
2019-03-19T22:47:54.212Z,19.20
2019-03-19T22:50:25.732Z,15.50
2019-03-19T22:52:57.184Z,19.73
2019-03-19T22:55:29.678Z,14.50
2019-03-19T22:58:02.711Z,17.40
2019-03-19T23:00:47.989Z,18.40
2019-03-19T23:03:21.098Z,17.80
2019-03-19T23:05:52.399Z,19.07
2019-03-19T23:08:23.791Z,21.03
2019-03-19T23:10:55.270Z,15.83
2019-03-19T23:13:28.125Z,18.83
2019-03-19T23:16:00.120Z,18.97
2019-03-19T23:18:31.520Z,19.90
2019-03-19T23:21:03.117Z,21.13
2019-03-19T23:23:35.163Z,16.20
2019-03-19T23:26:07.085Z,15.33
2019-03-19T23:28:38.635Z,13.33
2019-03-19T23:31:10.016Z,17.33
2019-03-19T23:33:41.528Z,17.63
2019-03-19T23:36:13.669Z,16.20
2019-03-19T23:38:45.501Z,18.73
2019-03-19T23:41:17.421Z,15.13
2019-03-19T23:43:49.969Z,14.87
2019-03-19T23:46:21.860Z,14.97
2019-03-19T23:48:53.367Z,12.93
2019-03-19T23:51:24.912Z,16.93
2019-03-19T23:53:56.755Z,18.63
2019-03-19T23:56:29.138Z,17.97
2019-03-19T23:59:01.050Z,11.63
